createdAt,value
2018-11-25T00:00:31.664Z,3.83
2018-11-25T00:02:58.835Z,5.50
2018-11-25T00:05:26.004Z,5.00
2018-11-25T00:07:53.170Z,4.87
2018-11-25T00:10:20.362Z,7.03
2018-11-25T00:12:47.551Z,6.40
2018-11-25T00:15:14.715Z,3.00
2018-11-25T00:17:41.931Z,5.40
2018-11-25T00:20:09.796Z,2.77
2018-11-25T00:22:36.947Z,2.43
2018-11-25T00:25:04.317Z,2.90
2018-11-25T00:27:31.491Z,3.07
2018-11-25T00:29:58.677Z,2.57
2018-11-25T00:32:25.837Z,2.20
2018-11-25T00:34:53.033Z,2.10
2018-11-25T00:37:20.186Z,2.53
2018-11-25T00:39:47.631Z,1.90
2018-11-25T00:42:14.790Z,2.50
2018-11-25T00:44:41.976Z,2.00
2018-11-25T00:47:09.162Z,2.10
2018-11-25T00:49:36.345Z,2.90
2018-11-25T00:52:03.491Z,2.27
2018-11-25T00:54:30.677Z,2.77
2018-11-25T00:56:57.832Z,1.83
2018-11-25T00:59:25.017Z,3.40
2018-11-25T01:01:52.167Z,2.60
2018-11-25T01:04:19.352Z,3.73
2018-11-25T01:06:46.546Z,3.13
2018-11-25T01:09:13.714Z,3.73
2018-11-25T01:11:40.867Z,2.90
2018-11-25T01:14:08.044Z,3.80
2018-11-25T01:16:35.195Z,12.50
2018-11-25T01:19:02.623Z,3.93
2018-11-25T01:21:29.772Z,5.90
2018-11-25T01:23:56.948Z,4.20
2018-11-25T01:26:24.128Z,4.40
2018-11-25T01:28:51.305Z,3.87
2018-11-25T01:31:18.466Z,2.97
2018-11-25T01:33:45.648Z,3.10
2018-11-25T01:36:12.799Z,3.03
2018-11-25T01:38:39.982Z,2.50
2018-11-25T01:41:07.135Z,2.70
2018-11-25T01:43:34.297Z,3.47
2018-11-25T01:46:01.484Z,4.60
2018-11-25T01:48:28.634Z,4.50
2018-11-25T01:50:55.812Z,5.00
2018-11-25T01:53:23.486Z,6.60
2018-11-25T01:55:50.670Z,6.00
2018-11-25T01:58:17.827Z,5.73
2018-11-25T02:00:44.993Z,7.90
2018-11-25T02:03:12.185Z,6.90
2018-11-25T02:05:39.386Z,6.43
2018-11-25T02:08:06.587Z,7.13
2018-11-25T02:10:33.771Z,10.10
2018-11-25T02:13:01.010Z,7.23
2018-11-25T02:15:28.197Z,10.77
2018-11-25T02:17:55.372Z,7.57
2018-11-25T02:20:23.171Z,8.43
2018-11-25T02:22:50.780Z,8.47
2018-11-25T02:25:17.973Z,8.70
2018-11-25T02:27:45.152Z,6.50
2018-11-25T02:30:12.697Z,8.37
2018-11-25T02:32:39.894Z,23.00
2018-11-25T02:35:07.879Z,8.83
2018-11-25T02:37:35.094Z,10.07
2018-11-25T02:40:02.936Z,10.50
2018-11-25T02:42:30.115Z,9.27
2018-11-25T02:44:57.282Z,11.80
2018-11-25T02:47:24.474Z,12.50
2018-11-25T02:49:51.673Z,12.13
2018-11-25T02:52:18.839Z,13.13
2018-11-25T02:54:46.015Z,11.87
2018-11-25T02:57:13.219Z,11.23
2018-11-25T02:59:40.405Z,14.73
2018-11-25T03:02:07.589Z,11.20
2018-11-25T03:04:34.804Z,12.47
2018-11-25T03:07:02.025Z,14.40
2018-11-25T03:09:29.208Z,12.63
2018-11-25T03:11:56.423Z,12.40
2018-11-25T03:14:23.584Z,13.50
2018-11-25T03:16:50.778Z,15.17
2018-11-25T03:19:17.968Z,15.73
2018-11-25T03:21:45.164Z,15.33
2018-11-25T03:24:12.324Z,13.23
2018-11-25T03:26:39.519Z,11.90
2018-11-25T03:29:06.666Z,11.50
2018-11-25T03:31:33.836Z,11.00
2018-11-25T03:34:01.491Z,11.63
2018-11-25T03:36:28.685Z,11.40
2018-11-25T03:38:55.858Z,9.33
2018-11-25T03:41:23.042Z,11.97
2018-11-25T03:43:50.231Z,17.50
2018-11-25T03:46:17.396Z,14.00
2018-11-25T03:48:44.612Z,9.50
2018-11-25T03:51:11.767Z,11.63
2018-11-25T03:53:38.954Z,12.90
2018-11-25T03:56:06.127Z,13.73
2018-11-25T03:58:33.327Z,10.60
2018-11-25T04:01:00.509Z,12.47
2018-11-25T04:03:27.667Z,10.90
2018-11-25T04:05:54.883Z,14.57
2018-11-25T04:08:22.032Z,12.57
2018-11-25T04:10:49.183Z,9.87
2018-11-25T04:13:16.363Z,8.37
2018-11-25T04:15:43.530Z,11.90
2018-11-25T04:18:10.711Z,10.30
2018-11-25T04:20:37.897Z,11.53
2018-11-25T04:23:05.184Z,9.83
2018-11-25T04:25:32.375Z,14.03
2018-11-25T04:27:59.559Z,10.20
2018-11-25T04:30:26.747Z,12.33
2018-11-25T04:32:53.903Z,9.40
2018-11-25T04:35:21.091Z,10.57
2018-11-25T04:37:48.252Z,8.80
2018-11-25T04:40:15.886Z,10.27
2018-11-25T04:42:43.059Z,10.00
2018-11-25T04:45:10.806Z,9.90
2018-11-25T04:47:38.099Z,8.53
2018-11-25T04:50:07.243Z,8.90
2018-11-25T04:52:34.408Z,9.27
2018-11-25T04:55:01.746Z,7.13
2018-11-25T04:57:28.938Z,7.73
2018-11-25T04:59:56.131Z,9.40
2018-11-25T05:02:23.499Z,9.13
2018-11-25T05:04:51.720Z,9.07
2018-11-25T05:07:17.879Z,8.23
2018-11-25T05:09:45.035Z,12.70
2018-11-25T05:12:12.212Z,8.23
2018-11-25T05:14:39.378Z,9.40
2018-11-25T05:17:06.564Z,9.93
2018-11-25T05:19:33.724Z,13.30
2018-11-25T05:22:01.468Z,10.73
2018-11-25T05:24:28.636Z,10.87
2018-11-25T05:26:55.812Z,13.43
2018-11-25T05:29:22.988Z,13.80
2018-11-25T05:31:50.177Z,17.83
2018-11-25T05:34:17.331Z,9.50
2018-11-25T05:36:44.540Z,10.43
2018-11-25T05:39:11.711Z,10.57
2018-11-25T05:41:38.899Z,8.90
2018-11-25T05:44:06.056Z,8.50
2018-11-25T05:46:33.242Z,8.90
2018-11-25T05:49:01.100Z,10.23
2018-11-25T05:51:28.288Z,13.50
2018-11-25T05:53:55.433Z,8.20
2018-11-25T05:56:22.604Z,7.97
2018-11-25T05:58:49.777Z,11.30
2018-11-25T06:01:16.948Z,8.03
2018-11-25T06:03:44.115Z,13.00
2018-11-25T06:06:11.302Z,10.13
2018-11-25T06:08:38.491Z,11.37
2018-11-25T06:11:05.656Z,11.20
2018-11-25T06:13:32.858Z,11.03
2018-11-25T06:16:00.051Z,11.23
2018-11-25T06:18:27.194Z,8.73
2018-11-25T06:20:54.388Z,9.90
2018-11-25T06:23:21.551Z,10.97
2018-11-25T06:25:48.741Z,12.60
2018-11-25T06:28:15.939Z,13.97
2018-11-25T06:30:43.099Z,13.00
2018-11-25T06:33:10.288Z,10.30
2018-11-25T06:35:37.456Z,11.13
2018-11-25T06:38:04.659Z,10.60
2018-11-25T06:40:31.821Z,10.80
2018-11-25T06:42:58.992Z,9.53
2018-11-25T06:45:26.813Z,11.40
2018-11-25T06:47:54.343Z,9.13
2018-11-25T06:50:21.561Z,13.13
2018-11-25T06:52:48.723Z,11.53
2018-11-25T06:55:15.868Z,9.80
2018-11-25T06:57:43.061Z,9.87
2018-11-25T07:00:11.959Z,10.33
2018-11-25T07:02:39.115Z,8.87
2018-11-25T07:05:06.693Z,9.40
2018-11-25T07:07:33.892Z,12.73
2018-11-25T07:10:01.394Z,8.33
2018-11-25T07:12:28.575Z,10.97
2018-11-25T07:14:55.736Z,10.00
2018-11-25T07:17:22.921Z,9.60
2018-11-25T07:19:50.067Z,9.27
2018-11-25T07:22:17.243Z,8.10
2018-11-25T07:24:44.420Z,8.53
2018-11-25T07:27:11.591Z,11.00
2018-11-25T07:29:38.773Z,12.23
2018-11-25T07:32:05.939Z,9.97
2018-11-25T07:34:33.121Z,9.17
2018-11-25T07:37:00.314Z,10.53
2018-11-25T07:39:27.495Z,10.83
2018-11-25T07:41:54.650Z,9.20
2018-11-25T07:44:21.856Z,10.70
2018-11-25T07:46:49.010Z,8.80
2018-11-25T07:49:16.163Z,9.97
2018-11-25T07:51:43.411Z,8.10
2018-11-25T07:54:10.575Z,10.43
2018-11-25T07:56:37.764Z,9.07
2018-11-25T07:59:05.135Z,9.90
2018-11-25T08:01:32.315Z,8.40
2018-11-25T08:03:59.499Z,9.27
2018-11-25T08:06:26.674Z,9.13
2018-11-25T08:08:53.872Z,9.40
2018-11-25T08:11:21.049Z,9.23
2018-11-25T08:13:48.196Z,8.27
2018-11-25T08:16:15.348Z,8.80
2018-11-25T08:18:42.530Z,11.53
2018-11-25T08:21:09.700Z,7.90
2018-11-25T08:23:36.843Z,6.93
2018-11-25T08:26:04.115Z,6.10
2018-11-25T08:28:31.267Z,6.13
2018-11-25T08:30:58.419Z,5.30
2018-11-25T08:33:25.600Z,5.00
2018-11-25T08:35:52.780Z,6.30
2018-11-25T08:38:19.930Z,8.80
2018-11-25T08:40:47.111Z,7.93
2018-11-25T08:43:14.525Z,9.10
2018-11-25T08:45:41.772Z,9.53
2018-11-25T08:48:09.324Z,7.77
2018-11-25T08:50:36.906Z,7.30
2018-11-25T08:53:04.398Z,8.00
2018-11-25T08:55:31.596Z,7.60
2018-11-25T08:57:59.174Z,6.83
2018-11-25T09:00:27.513Z,6.80
2018-11-25T09:02:56.678Z,9.57
2018-11-25T09:05:24.403Z,7.77
2018-11-25T09:07:51.773Z,7.97
2018-11-25T09:10:26.234Z,8.90
2018-11-25T09:12:56.049Z,9.30
2018-11-25T09:15:22.682Z,10.50
2018-11-25T09:17:49.904Z,10.80
2018-11-25T09:20:17.979Z,10.40
2018-11-25T09:22:45.160Z,8.80
2018-11-25T09:25:15.961Z,12.57
2018-11-25T09:27:43.232Z,8.10
2018-11-25T09:30:14.174Z,8.60
2018-11-25T09:32:41.407Z,10.30
2018-11-25T09:35:08.613Z,9.70
2018-11-25T09:37:35.775Z,12.10
2018-11-25T09:40:07.191Z,12.50
2018-11-25T09:42:34.401Z,11.70
2018-11-25T09:45:01.912Z,13.73
2018-11-25T09:47:29.079Z,14.47
2018-11-25T09:49:56.282Z,14.50
2018-11-25T09:52:23.532Z,12.27
2018-11-25T09:54:50.685Z,12.93
2018-11-25T09:57:17.952Z,12.40
2018-11-25T09:59:45.263Z,14.60
2018-11-25T10:02:12.460Z,14.90
2018-11-25T10:04:39.624Z,16.40
2018-11-25T10:07:06.811Z,14.37
2018-11-25T10:09:34.031Z,27.73
2018-11-25T10:12:01.189Z,50.47
2018-11-25T10:14:28.347Z,63.57
2018-11-25T10:16:55.534Z,23.80
2018-11-25T10:19:22.687Z,22.37
2018-11-25T10:21:49.876Z,24.13
2018-11-25T10:24:17.091Z,35.03
2018-11-25T10:26:44.285Z,45.83
2018-11-25T10:29:11.437Z,51.30
2018-11-25T10:31:38.619Z,65.07
2018-11-25T10:34:05.813Z,86.47
2018-11-25T10:36:32.981Z,120.87
2018-11-25T10:39:00.334Z,84.87
2018-11-25T10:41:27.521Z,60.67
2018-11-25T10:43:54.695Z,25.53
2018-11-25T10:46:21.899Z,30.80
2018-11-25T10:48:49.087Z,17.07
2018-11-25T10:51:16.253Z,80.37
2018-11-25T10:53:43.401Z,41.03
2018-11-25T10:56:10.607Z,18.10
2018-11-25T10:58:37.772Z,18.90
2018-11-25T11:01:11.089Z,15.97
2018-11-25T11:03:43.801Z,14.70
2018-11-25T11:06:16.378Z,15.60
2018-11-25T11:08:43.574Z,14.10
2018-11-25T11:11:10.747Z,12.20
2018-11-25T11:13:37.945Z,11.10
2018-11-25T11:16:05.128Z,12.13
2018-11-25T11:18:34.769Z,10.40
2018-11-25T11:21:02.376Z,11.60
2018-11-25T11:23:29.569Z,10.80
2018-11-25T11:25:56.725Z,11.77
2018-11-25T11:28:23.892Z,10.63
2018-11-25T11:30:51.071Z,11.53
2018-11-25T11:33:18.632Z,10.10
2018-11-25T11:35:45.888Z,10.60
2018-11-25T11:38:13.243Z,10.90
2018-11-25T11:40:40.428Z,15.33
2018-11-25T11:43:07.953Z,14.03
2018-11-25T11:45:35.151Z,13.80
2018-11-25T11:48:02.865Z,24.00
2018-11-25T11:50:30.464Z,16.60
2018-11-25T11:52:57.727Z,15.37
2018-11-25T11:55:24.912Z,14.03
2018-11-25T11:57:52.241Z,38.33
2018-11-25T12:00:24.164Z,22.03
2018-11-25T12:02:51.413Z,29.93
2018-11-25T12:05:18.601Z,16.97
2018-11-25T12:07:45.781Z,11.87
2018-11-25T12:10:13.415Z,23.20
2018-11-25T12:12:40.591Z,27.20
2018-11-25T12:15:09.828Z,13.50
2018-11-25T12:17:36.992Z,23.40
2018-11-25T12:20:04.167Z,21.80
2018-11-25T12:22:31.348Z,17.73
2018-11-25T12:24:58.518Z,32.13
2018-11-25T12:27:25.688Z,32.17
2018-11-25T12:29:52.867Z,16.80
2018-11-25T12:32:20.041Z,15.10
2018-11-25T12:34:47.202Z,15.43
2018-11-25T12:37:14.388Z,14.27
2018-11-25T12:39:41.560Z,13.67
2018-11-25T12:42:08.719Z,11.57
2018-11-25T12:44:35.911Z,14.33
2018-11-25T12:47:03.072Z,12.80
2018-11-25T12:49:30.262Z,13.27
2018-11-25T12:51:57.448Z,14.70
2018-11-25T12:54:24.619Z,18.53
2018-11-25T12:56:52.053Z,11.60
2018-11-25T12:59:18.968Z,16.20
2018-11-25T13:01:46.149Z,14.70
2018-11-25T13:04:13.324Z,11.93
2018-11-25T13:06:40.511Z,21.50
2018-11-25T13:09:07.808Z,21.80
2018-11-25T13:11:34.995Z,12.10
2018-11-25T13:14:02.455Z,11.93
2018-11-25T13:16:29.839Z,23.70
2018-11-25T13:18:57.166Z,21.63
2018-11-25T13:21:24.363Z,24.23
2018-11-25T13:23:51.562Z,18.73
2018-11-25T13:26:18.735Z,13.33
2018-11-25T13:28:45.940Z,15.60
2018-11-25T13:31:13.095Z,12.60
2018-11-25T13:33:40.302Z,16.03
2018-11-25T13:36:08.368Z,12.37
2018-11-25T13:38:35.552Z,13.40
2018-11-25T13:41:03.111Z,14.77
2018-11-25T13:43:30.268Z,15.13
2018-11-25T13:45:57.448Z,15.20
2018-11-25T13:48:24.634Z,14.63
2018-11-25T13:50:51.822Z,17.83
2018-11-25T13:53:19.002Z,14.63
2018-11-25T13:55:46.155Z,16.53
2018-11-25T13:58:13.339Z,14.87
2018-11-25T14:00:41.613Z,13.90
2018-11-25T14:03:09.690Z,14.63
2018-11-25T14:05:36.932Z,17.60
2018-11-25T14:08:04.215Z,14.30
2018-11-25T14:10:32.196Z,17.60
2018-11-25T14:12:59.382Z,14.17
2018-11-25T14:15:26.571Z,14.17
2018-11-25T14:17:53.747Z,14.33
2018-11-25T14:20:20.936Z,16.57
2018-11-25T14:22:48.083Z,18.00
2018-11-25T14:25:16.303Z,14.73
2018-11-25T14:27:43.757Z,17.73
2018-11-25T14:30:14.755Z,17.00
2018-11-25T14:32:41.945Z,13.83
2018-11-25T14:35:10.867Z,17.13
2018-11-25T14:37:38.039Z,14.87
2018-11-25T14:40:06.956Z,13.47
2018-11-25T14:42:34.488Z,13.87
2018-11-25T14:45:03.057Z,14.40
2018-11-25T14:47:30.284Z,13.60
2018-11-25T14:49:58.283Z,16.83
2018-11-25T14:52:32.960Z,17.80
2018-11-25T14:55:00.298Z,18.43
2018-11-25T14:57:28.094Z,19.17
2018-11-25T14:59:56.315Z,18.87
2018-11-25T15:02:23.472Z,16.63
2018-11-25T15:04:50.755Z,18.40
2018-11-25T15:07:18.307Z,14.77
2018-11-25T15:09:45.488Z,20.07
2018-11-25T15:12:12.643Z,18.57
2018-11-25T15:14:40.052Z,16.37
2018-11-25T15:17:07.568Z,16.23
2018-11-25T15:19:34.921Z,18.43
2018-11-25T15:22:02.593Z,18.50
2018-11-25T15:24:31.175Z,21.77
2018-11-25T15:26:59.016Z,20.57
2018-11-25T15:29:26.188Z,26.23
2018-11-25T15:31:53.386Z,19.00
2018-11-25T15:34:20.579Z,24.23
2018-11-25T15:36:48.360Z,44.60
2018-11-25T15:39:17.476Z,38.13
2018-11-25T15:41:44.810Z,23.53
2018-11-25T15:44:12.062Z,22.80
2018-11-25T15:46:41.402Z,22.87
2018-11-25T15:49:09.051Z,21.57
2018-11-25T15:51:36.349Z,23.00
2018-11-25T15:54:04.232Z,17.73
2018-11-25T15:56:32.294Z,22.73
2018-11-25T15:58:59.960Z,26.67
2018-11-25T16:01:29.306Z,21.80
2018-11-25T16:03:56.756Z,30.10
2018-11-25T16:06:27.573Z,23.43
2018-11-25T16:08:55.599Z,29.90
2018-11-25T16:11:23.526Z,16.30
2018-11-25T16:13:50.723Z,22.20
2018-11-25T16:16:17.950Z,18.03
2018-11-25T16:18:45.115Z,18.87
2018-11-25T16:21:12.326Z,19.90
2018-11-25T16:23:39.649Z,23.20
2018-11-25T16:26:09.092Z,17.33
2018-11-25T16:28:38.293Z,19.30
2018-11-25T16:31:05.685Z,20.17
2018-11-25T16:33:33.371Z,19.20
2018-11-25T16:36:01.647Z,17.93
2018-11-25T16:38:28.816Z,21.20
2018-11-25T16:40:56.005Z,20.70
2018-11-25T16:43:23.653Z,19.47
2018-11-25T16:45:50.890Z,19.73
2018-11-25T16:48:18.060Z,21.60
2018-11-25T16:50:45.244Z,26.90
2018-11-25T16:53:12.456Z,21.47
2018-11-25T16:55:39.626Z,20.57
2018-11-25T16:58:06.893Z,21.73
2018-11-25T17:00:34.052Z,26.40
2018-11-25T17:03:01.886Z,23.83
2018-11-25T17:05:30.557Z,24.10
2018-11-25T17:08:32.215Z,23.00
2018-11-25T17:11:06.356Z,25.27
2018-11-25T17:13:33.551Z,46.80
2018-11-25T17:16:00.761Z,235.90
2018-11-25T17:18:28.033Z,239.47
2018-11-25T17:20:55.356Z,449.00
2018-11-25T17:23:22.635Z,172.73
2018-11-25T17:25:49.814Z,214.50
2018-11-25T17:28:17.026Z,321.40
2018-11-25T17:30:44.193Z,240.00
2018-11-25T17:33:11.478Z,107.50
2018-11-25T17:35:38.647Z,249.33
2018-11-25T17:38:06.168Z,139.63
2018-11-25T17:40:33.340Z,69.70
2018-11-25T17:43:00.495Z,75.67
2018-11-25T17:45:27.675Z,59.13
2018-11-25T17:47:54.844Z,63.13
2018-11-25T17:50:22.647Z,39.63
2018-11-25T17:52:49.814Z,41.73
2018-11-25T17:55:17.238Z,46.60
2018-11-25T17:57:44.496Z,35.10
2018-11-25T18:00:20.135Z,45.10
2018-11-25T18:02:47.308Z,48.27
2018-11-25T18:05:14.525Z,60.83
2018-11-25T18:07:41.687Z,51.07
2018-11-25T18:10:10.481Z,40.83
2018-11-25T18:12:37.699Z,44.47
2018-11-25T18:15:06.220Z,44.43
2018-11-25T18:17:33.434Z,49.00
2018-11-25T18:20:00.592Z,42.60
2018-11-25T18:22:28.645Z,40.47
2018-11-25T18:24:55.836Z,40.90
2018-11-25T18:27:23.003Z,38.27
2018-11-25T18:29:50.363Z,42.20
2018-11-25T18:32:17.548Z,35.60
2018-11-25T18:34:44.729Z,35.93
2018-11-25T18:37:11.904Z,40.10
2018-11-25T18:39:39.276Z,30.50
2018-11-25T18:42:06.447Z,38.87
2018-11-25T18:44:33.603Z,47.47
2018-11-25T18:47:01.892Z,39.33
2018-11-25T18:49:29.094Z,33.97
2018-11-25T18:51:56.255Z,33.80
2018-11-25T18:54:23.432Z,42.03
2018-11-25T18:56:50.604Z,35.20
2018-11-25T18:59:17.778Z,32.77
2018-11-25T19:01:48.393Z,30.50
2018-11-25T19:04:15.576Z,34.00
2018-11-25T19:06:42.734Z,30.10
2018-11-25T19:09:10.312Z,33.27
2018-11-25T19:11:37.475Z,31.90
2018-11-25T19:14:04.652Z,41.17
2018-11-25T19:16:31.842Z,31.40
2018-11-25T19:18:58.991Z,37.80
2018-11-25T19:21:26.174Z,38.30
2018-11-25T19:23:53.348Z,28.07
2018-11-25T19:26:20.564Z,32.53
2018-11-25T19:28:47.744Z,33.87
2018-11-25T19:31:14.933Z,29.67
2018-11-25T19:33:42.123Z,28.67
2018-11-25T19:36:09.288Z,28.77
2018-11-25T19:38:36.465Z,33.33
2018-11-25T19:41:03.619Z,28.07
2018-11-25T19:43:30.800Z,31.13
2018-11-25T19:45:57.956Z,33.60
2018-11-25T19:48:25.135Z,31.37
2018-11-25T19:50:52.300Z,25.97
2018-11-25T19:53:19.486Z,34.70
2018-11-25T19:55:46.647Z,25.23
2018-11-25T19:58:13.835Z,25.70
2018-11-25T20:00:40.991Z,32.63
2018-11-25T20:03:08.192Z,30.43
2018-11-25T20:05:35.433Z,23.73
2018-11-25T20:08:03.059Z,24.17
2018-11-25T20:10:30.181Z,20.10
2018-11-25T20:12:57.690Z,24.90
2018-11-25T20:15:24.932Z,21.07
2018-11-25T20:17:54.407Z,24.73
2018-11-25T20:20:21.580Z,24.07
2018-11-25T20:22:49.064Z,25.90
2018-11-25T20:25:16.734Z,28.60
2018-11-25T20:27:45.994Z,26.50
2018-11-25T20:30:14.777Z,21.33
2018-11-25T20:32:47.485Z,28.97
2018-11-25T20:35:14.667Z,26.37
2018-11-25T20:37:47.412Z,24.83
2018-11-25T20:40:14.587Z,23.47
2018-11-25T20:42:41.778Z,25.10
2018-11-25T20:45:15.042Z,24.40
2018-11-25T20:47:42.385Z,26.17
2018-11-25T20:50:09.574Z,23.50
2018-11-25T20:52:42.212Z,23.67
2018-11-25T20:55:09.383Z,23.53
2018-11-25T20:57:36.571Z,23.67
2018-11-25T21:00:04.000Z,24.20
2018-11-25T21:02:31.167Z,22.10
2018-11-25T21:04:58.372Z,24.20
2018-11-25T21:07:25.549Z,22.50
2018-11-25T21:09:52.731Z,20.27
2018-11-25T21:12:19.916Z,24.03
2018-11-25T21:14:47.067Z,22.37
2018-11-25T21:17:14.352Z,22.57
2018-11-25T21:19:41.540Z,21.27
2018-11-25T21:22:08.722Z,21.27
2018-11-25T21:24:35.882Z,26.00
2018-11-25T21:27:03.060Z,23.50
2018-11-25T21:29:30.230Z,21.17
2018-11-25T21:31:57.408Z,20.23
2018-11-25T21:34:24.576Z,21.23
2018-11-25T21:36:51.763Z,23.07
2018-11-25T21:39:18.931Z,20.13
2018-11-25T21:41:46.119Z,24.73
2018-11-25T21:44:13.285Z,21.60
2018-11-25T21:46:40.476Z,19.53
2018-11-25T21:49:07.681Z,22.03
2018-11-25T21:51:34.848Z,22.30
2018-11-25T21:54:02.278Z,26.33
2018-11-25T21:56:29.463Z,21.63
2018-11-25T21:58:56.650Z,23.30
2018-11-25T22:01:23.835Z,24.00
2018-11-25T22:03:51.039Z,21.80
2018-11-25T22:06:18.255Z,21.60
2018-11-25T22:08:45.963Z,27.20
2018-11-25T22:11:13.255Z,29.87
2018-11-25T22:13:40.406Z,27.83
2018-11-25T22:16:07.610Z,21.47
2018-11-25T22:18:34.782Z,26.33
2018-11-25T22:21:02.691Z,21.23
2018-11-25T22:23:29.879Z,26.80
2018-11-25T22:25:57.036Z,26.80
2018-11-25T22:28:24.225Z,31.40
2018-11-25T22:30:51.391Z,24.93
2018-11-25T22:33:18.555Z,26.93
2018-11-25T22:35:45.760Z,27.30
2018-11-25T22:38:12.930Z,30.63
2018-11-25T22:40:40.111Z,26.10
2018-11-25T22:43:07.267Z,22.03
2018-11-25T22:45:34.468Z,26.77
2018-11-25T22:48:02.392Z,26.50
2018-11-25T22:50:29.587Z,24.67
2018-11-25T22:52:56.744Z,26.80
2018-11-25T22:55:24.872Z,29.53
2018-11-25T22:57:52.063Z,22.63
2018-11-25T23:00:20.899Z,25.90
2018-11-25T23:02:48.064Z,22.20
2018-11-25T23:05:20.836Z,25.20
2018-11-25T23:07:48.139Z,26.67
2018-11-25T23:10:16.072Z,32.67
2018-11-25T23:12:43.239Z,24.17
2018-11-25T23:15:10.416Z,24.70
2018-11-25T23:17:37.600Z,30.90
2018-11-25T23:20:05.575Z,32.33
2018-11-25T23:22:32.776Z,32.10
2018-11-25T23:24:59.938Z,26.70
2018-11-25T23:27:27.129Z,25.67
2018-11-25T23:29:54.306Z,29.17
2018-11-25T23:32:21.479Z,23.77
2018-11-25T23:34:48.662Z,28.10
2018-11-25T23:37:15.835Z,26.23
2018-11-25T23:39:43.030Z,31.47
2018-11-25T23:42:10.263Z,25.43
2018-11-25T23:44:37.425Z,26.03
2018-11-25T23:47:04.618Z,24.23
2018-11-25T23:49:31.775Z,26.03
2018-11-25T23:51:58.959Z,25.80
2018-11-25T23:54:26.161Z,25.23
2018-11-25T23:56:53.319Z,38.77
2018-11-25T23:59:20.503Z,25.40
